Terminal Aerodrome Forecast
Issued by NWS Caribou, ME

Home | Current Version | Previous Version | Text Only | Print | Product List | Glossary On
Versions: 1 2 3 4 5 6 7 8 9 10 11 12 13 14 15 16 17 18 19 20
000
FTUS41 KCAR 011300 AAB
TAFBGR
TAF AMD
KBGR 011353Z 0114/0212 19005KT P6SM SCT025
     FM011600 19008KT P6SM SCT040
     FM020400 17006KT P6SM BKN025
     FM020600 VRB03KT 2SM BR BKN008=

USA.gov is the U.S. government's official web portal to all federal, state and local government web resources and services.